Station: The Monument  

  Atmospheric Gas Attenuation - ITU Rec 676-11   ----------------- dB/100km -----------------
Date Time Temp RH % AH g/m3 Dew Point Wind Direction Speed kph Gust kph Barometer mB Rainfall Since 9am 24GHz 47GHz 76GHz 122GHz 134GHz 241GHz
08/05 12:40 21.8 38 7.29 6.9 20 28 1020.1 0 16.5 22.1 31.7 82.8 74.2 254.5
08/05 12:30 21.4 38 7.12 6.5 20 32 1020.5 0 16.1 21.9 31.3 81.7 72.6 249.0
08/05 12:20 21.7 37 7.06 6.4 28 33 1020.7 0 16.0 21.8 31.0 80.8 71.7 245.8
08/05 12:10 21.1 39 7.19 6.6 17 20 1020.9 0 16.3 22.1 31.6 82.7 73.7 252.8
08/05 12:00 20.9 38 6.92 6.1 24 33 1021.2 0 15.7 21.8 30.8 80.4 70.8 242.7
08/05 11:50 20.7 39 7.02 6.3 26 32 1021.2 0 15.9 22.0 31.2 81.5 72.2 247.3
08/05 11:40 20.6 39 6.98 6.2 22 24 1021.4 0 15.9 22.0 31.1 81.3 71.8 246.0
08/05 11:30 20.6 39 6.98 6.2 24 35 1021.6 0 15.9 22.0 31.1 81.3 71.8 246.1
08/05 11:20 20 40 6.91 6 26 32 1021.6 0 15.7 22.0 31.1 81.2 71.5 245.0
08/05 11:10 20.1 41 7.13 6.4 24 30 1021.7 0 16.2 22.3 31.8 83.2 74.0 253.7
08/05 11:00 19.8 41 7 6.2 28 37 1021.9 0 15.9 22.2 31.5 82.3 72.8 249.3
08/05 10:50 19.7 42 7.13 6.4 22 30 1021.9 0 16.2 22.4 32.0 83.6 74.4 254.9
08/05 10:40 19.6 42 7.09 6.3 32 35 1022 0 16.1 22.4 31.9 83.3 74.0 253.6
08/05 10:30 18.8 42 6.76 5.6 32 35 1022.1 0 15.5 22.1 31.1 81.1 70.9 242.7
08/05 10:20 19 43 7.01 6.1 28 37 1022.1 0 16.0 22.4 31.9 83.2 73.6 252.3
08/05 10:10 17.7 47 7.09 6.3 28 30 1022.1 0 16.2 22.8 32.7 85.3 75.8 259.7
08/05 10:00 17.9 48 7.33 6.7 24 35 1022.4 0 16.7 23.2 33.5 87.5 78.5 269.1
08/05 09:50 16.6 49 6.92 5.9 28 30 1021.9 0 15.9 22.9 32.5 84.8 74.8 256.0
08/05 09:40 17 50 7.23 6.5 26 32 1022 0 16.5 23.2 33.5 87.4 78.1 267.8
08/05 09:30 16.3 51 7.08 6.2 22 37 1022.2 0 16.2 23.2 33.2 86.7 77.0 263.8
08/05 09:20 16.5 53 7.44 6.9 19 20 1021.9 0 17.0 23.7 34.4 90.0 81.2 278.5
08/05 09:10 16.2 53 7.31 6.6 22 28 1021.9 0 16.7 23.5 34.1 89.1 79.9 273.9
08/05 09:00 15.8 55 7.4 6.8 22 33 1021.9 0 16.9 23.8 34.6 90.4 81.4 279.2
08/05 08:50 15.2 57 7.4 6.7 19 26 1021.6 0 17.0 23.9 34.8 91.1 82.0 281.2
08/05 08:40 14.8 58 7.35 6.6 19 22 1021.7 0 16.9 24.0 34.8 91.0 81.8 280.4
08/05 08:30 13.7 62 7.34 6.6 19 24 1021.7 0 16.9 24.2 35.3 92.2 82.8 283.9
08/05 08:20 13.1 63 7.19 6.2 15 20 1021.5 0 16.6 24.2 34.9 91.3 81.6 279.3
08/05 08:10 12.9 64 7.21 6.3 19 24 1021.5 0 16.7 24.2 35.1 91.8 82.0 280.9
08/05 08:00 12.7 66 7.35 6.5 15 20 1021.6 0 17.0 24.5 35.7 93.5 84.0 287.9
08/05 07:50 12.6 66 7.3 6.4 17 20 1021.6 0 16.9 24.5 35.6 93.0 83.5 286.0
08/05 07:40 12.4 67 7.32 6.5 15 19 1021.5 0 16.9 24.5 35.7 93.5 84.0 287.6
08/05 07:30 12 68 7.25 6.3 13 17 1021.6 0 16.8 24.6 35.7 93.2 83.5 285.9
08/05 07:20 12 68 7.25 6.3 11 13 1021.4 0 16.8 24.5 35.6 93.2 83.5 285.9
08/05 07:10 12.1 67 7.19 6.2 13 13 1021.2 0 16.7 24.4 35.4 92.4 82.6 282.8
08/05 07:00 12.2 66 7.12 6 13 20 1020.9 0 16.5 24.3 35.0 91.6 81.6 279.2
08/05 06:50 12.3 66 7.17 6.1 13 15 1020.7 0 16.6 24.3 35.2 92.0 82.1 281.0
08/05 06:40 12.6 65 7.19 6.2 13 15 1020.6 0 16.6 24.3 35.1 91.8 82.0 280.8
08/05 06:30 12.6 64 7.08 6 15 20 1020.2 0 16.4 24.1 34.7 90.6 80.6 275.8
08/05 06:20 12.6 64 7.08 6 15 17 1020.4 0 16.4 24.1 34.7 90.7 80.6 275.9
08/05 06:10 12.9 63 7.1 6 13 15 1020.5 0 16.4 24.0 34.6 90.5 80.5 275.7
08/05 06:00 13.2 61 7 5.9 15 20 1020.5 0 16.2 23.8 34.1 89.2 79.0 270.3
08/05 05:50 13.4 60 6.98 5.8 15 17 1020.3 0 16.1 23.7 33.9 88.7 78.5 268.7
08/05 05:40 13.5 59 6.9 5.7 13 15 1020.1 0 16.0 23.6 33.6 87.8 77.4 264.8
08/05 05:30 13.6 58 6.83 5.5 15 26 1020.2 0 15.8 23.4 33.3 87.0 76.4 261.4
08/05 05:20 13.7 57 6.75 5.3 17 20 1019.7 0 15.6 23.3 32.9 86.0 75.3 257.5
08/05 05:10 13.6 57 6.71 5.3 15 20 1019.8 0 15.6 23.2 32.8 85.7 74.9 256.1
08/05 05:00 13.8 56 6.67 5.2 17 22 1020.1 0 15.5 23.1 32.6 85.1 74.3 253.8
08/05 04:50 14.1 55 6.68 5.2 15 19 1019.9 0 15.5 23.1 32.5 84.9 74.1 253.2
08/05 04:40 14.2 54 6.59 5 19 20 1019.7 0 15.3 22.9 32.1 83.9 72.9 249.0
08/05 04:30 14.3 53 6.51 4.9 17 22 1019.9 0 15.1 22.8 31.8 83.0 71.8 245.3
08/05 04:20 14.4 52 6.43 4.7 19 24 1019.9 0 14.9 22.6 31.5 82.1 70.8 241.6
08/05 04:10 14.3 53 6.51 4.9 17 20 1019.6 0 15.1 22.7 31.8 83.0 71.8 245.3
08/05 04:00 14.2 53 6.47 4.8 15 20 1019.9 0 15.0 22.7 31.7 82.7 71.4 243.9
08/05 03:50 14.3 53 6.51 4.9 17 20 1019.5 0 15.1 22.7 31.8 83.0 71.8 245.2
08/05 03:40 14.4 53 6.55 5 15 17 1019.6 0 15.2 22.8 31.9 83.3 72.2 246.7
08/05 03:30 14.3 53 6.51 4.9 17 20 1019.7 0 15.1 22.7 31.8 83.0 71.8 245.3
08/05 03:20 14.3 53 6.51 4.9 15 19 1019.6 0 15.1 22.7 31.8 83.0 71.8 245.3
08/05 03:10 14.4 53 6.55 5 15 17 1019.6 0 15.2 22.8 31.9 83.3 72.2 246.7
08/05 03:00 14.4 53 6.55 5 13 17 1019.9 0 15.2 22.8 31.9 83.3 72.2 246.7
08/05 02:50 14.5 53 6.59 5 13 15 1019.7 0 15.3 22.8 32.0 83.6 72.6 248.1
08/05 02:40 14.2 54 6.59 5 13 15 1019.7 0 15.3 22.9 32.1 83.9 72.9 249.0
08/05 02:30 14.2 54 6.59 5 11 13 1020 0 15.3 22.9 32.1 83.9 72.9 249.1
08/05 02:20 14.4 53 6.55 5 11 13 1019.7 0 15.2 22.8 31.9 83.3 72.2 246.7
08/05 02:10 14.6 51 6.38 4.6 13 13 1019.7 0 14.8 22.5 31.2 81.4 70.0 238.9
08/05 02:00 14.8 50 6.33 4.5 13 19 1019.6 0 14.7 22.4 30.9 80.7 69.2 236.1
08/05 01:50 14.9 50 6.37 4.6 13 17 1019.4 0 14.8 22.4 31.0 81.0 69.6 237.5
08/05 01:40 15.1 49 6.32 4.5 13 15 1019.8 0 14.7 22.3 30.8 80.3 68.8 234.9
08/05 01:30 15.5 48 6.34 4.6 15 19 1020 0 14.7 22.2 30.7 80.1 68.7 234.6
08/05 01:20 15.7 47 6.29 4.4 13 17 1019.9 0 14.6 22.1 30.5 79.5 68.0 231.9
08/05 01:10 15.8 47 6.33 4.5 15 17 1019.9 0 14.7 22.1 30.6 79.7 68.3 233.3
08/05 01:00 15.9 46 6.23 4.3 15 20 1020.1 0 14.5 22.0 30.2 78.7 67.1 228.9
08/05 00:50 16 46 6.27 4.4 13 15 1019.9 0 14.5 22.0 30.3 79.0 67.5 230.2
08/05 00:40 16.1 45 6.17 4.2 17 20 1019.7 0 14.3 21.8 29.9 77.9 66.2 225.8
08/05 00:30 16.3 45 6.24 4.4 20 28 1019.6 0 14.5 21.9 30.1 78.4 66.8 228.1
08/05 00:20 16.5 44 6.18 4.2 19 20 1019.6 0 14.3 21.7 29.8 77.6 66.0 225.1
08/05 00:10 16.7 44 6.25 4.4 19 20 1019.9 0 14.5 21.8 30.0 78.1 66.6 227.4
08/05 00:00 16.9 43 6.18 4.3 20 30 1020 0 14.3 21.6 29.6 77.3 65.7 224.0
07/05 23:50 17 43 6.22 4.3 20 26 1020.1 0 14.4 21.7 29.8 77.6 66.1 225.4
07/05 23:40 17.2 42 6.15 4.2 22 28 1020.3 0 14.2 21.5 29.4 76.7 65.1 222.1
07/05 23:30 17.4 42 6.22 4.4 22 32 1020.4 0 14.4 21.6 29.6 77.2 65.7 224.4
07/05 23:20 17.6 42 6.3 4.5 24 28 1020 0 14.6 21.7 29.8 77.7 66.5 227.0
07/05 23:10 17.7 42 6.34 4.6 20 28 1020 0 14.6 21.7 29.9 78.0 66.9 228.3
07/05 23:00 17.7 42 6.34 4.6 20 28 1020.4 0 14.6 21.7 29.9 78.0 66.9 228.4
07/05 22:50 17.7 42 6.34 4.6 20 24 1020.3 0 14.6 21.7 29.9 78.0 66.9 228.4
07/05 22:40 17.9 42 6.41 4.8 20 28 1020.3 0 14.8 21.7 30.1 78.5 67.5 230.7
07/05 22:30 17.9 42 6.41 4.8 20 28 1020.3 0 14.8 21.7 30.1 78.5 67.5 230.7
07/05 22:20 18 42 6.45 4.9 20 24 1020.4 0 14.9 21.8 30.2 78.8 67.9 232.0
07/05 22:10 18.1 41 6.33 4.7 20 26 1020.3 0 14.6 21.6 29.7 77.6 66.4 226.9
07/05 22:00 18.1 41 6.33 4.7 19 26 1020.4 0 14.6 21.6 29.8 77.6 66.4 226.9
07/05 21:50 18.3 40 6.25 4.5 19 24 1020.1 0 14.4 21.4 29.4 76.6 65.3 223.1
07/05 21:40 18.3 41 6.41 4.8 19 24 1020.3 0 14.8 21.7 30.0 78.1 67.2 229.5
07/05 21:30 18.6 40 6.37 4.8 20 26 1020.6 0 14.7 21.5 29.7 77.5 66.5 227.2
07/05 21:20 18.8 39 6.28 4.6 22 24 1020.3 0 14.5 21.4 29.3 76.4 65.3 222.9
07/05 21:10 19 38 6.19 4.4 20 24 1020.4 0 14.3 21.2 28.9 75.4 64.1 218.8
07/05 21:00 19 38 6.19 4.4 20 28 1020.3 0 14.3 21.2 28.9 75.4 64.1 218.8
07/05 20:50 19.1 39 6.39 4.8 20 26 1020 0 14.7 21.4 29.6 77.1 66.3 226.5
07/05 20:40 19.2 39 6.43 4.9 19 24 1020 0 14.8 21.5 29.7 77.4 66.7 227.8
07/05 20:30 19.4 40 6.67 5.5 19 30 1020.2 0 15.3 21.8 30.5 79.5 69.2 236.9
07/05 20:20 19.6 40 6.75 5.6 17 20 1019.9 0 15.4 21.8 30.6 80.0 70.0 239.4
07/05 20:10 19.8 40 6.83 5.8 17 20 1019.7 0 15.6 21.9 30.8 80.5 70.7 242.0

Last Refresh: 08-May-2026 12:10:21

Bureau of Meteorology